sensor_id;sensor_type;location;lat;lon;timestamp;pressure;altitude;pressure_sealevel;temperature;humidity
74913;BME280;63878;55.624;37.304;2024-01-30T00:00:59;100177.97;;;-5.07;83.62
74913;BME280;63878;55.624;37.304;2024-01-30T00:11:00;100194.03;;;-4.99;83.38
74913;BME280;63878;55.624;37.304;2024-01-30T00:21:00;100185.47;;;-4.96;83.30
74913;BME280;63878;55.624;37.304;2024-01-30T00:31:01;100185.44;;;-4.95;83.38
74913;BME280;63878;55.624;37.304;2024-01-30T00:41:01;100180.06;;;-4.78;83.07
74913;BME280;63878;55.624;37.304;2024-01-30T00:51:02;100181.00;;;-4.85;83.12
74913;BME280;63878;55.624;37.304;2024-01-30T01:01:04;100178.44;;;-4.84;83.43
74913;BME280;63878;55.624;37.304;2024-01-30T01:11:04;100175.06;;;-4.84;83.38
74913;BME280;63878;55.624;37.304;2024-01-30T01:21:05;100169.84;;;-4.78;83.01
74913;BME280;63878;55.624;37.304;2024-01-30T01:31:05;100172.34;;;-4.75;83.07
74913;BME280;63878;55.624;37.304;2024-01-30T01:41:07;100150.03;;;-4.67;82.63
74913;BME280;63878;55.624;37.304;2024-01-30T01:51:08;100148.34;;;-4.67;82.63
74913;BME280;63878;55.624;37.304;2024-01-30T02:01:10;100140.06;;;-4.78;83.32
74913;BME280;63878;55.624;37.304;2024-01-30T02:11:12;100132.22;;;-4.69;83.47
74913;BME280;63878;55.624;37.304;2024-01-30T02:21:16;100140.63;;;-4.64;82.77
74913;BME280;63878;55.624;37.304;2024-01-30T02:31:17;100141.41;;;-4.59;82.78
74913;BME280;63878;55.624;37.304;2024-01-30T02:41:17;100147.13;;;-4.48;83.16
74913;BME280;63878;55.624;37.304;2024-01-30T02:51:18;100141.19;;;-4.48;82.92
74913;BME280;63878;55.624;37.304;2024-01-30T03:01:19;100127.53;;;-4.46;82.99
74913;BME280;63878;55.624;37.304;2024-01-30T03:11:20;100139.22;;;-4.34;82.85
74913;BME280;63878;55.624;37.304;2024-01-30T03:21:20;100139.22;;;-4.34;83.11
74913;BME280;63878;55.624;37.304;2024-01-30T03:31:21;100156.09;;;-4.27;83.15
74913;BME280;63878;55.624;37.304;2024-01-30T03:41:21;100133.75;;;-4.18;82.48
74913;BME280;63878;55.624;37.304;2024-01-30T03:51:22;100146.56;;;-4.19;82.60
74913;BME280;63878;55.624;37.304;2024-01-30T04:01:23;100158.97;;;-4.01;82.20
74913;BME280;63878;55.624;37.304;2024-01-30T04:11:23;100147.00;;;-3.99;82.09
74913;BME280;63878;55.624;37.304;2024-01-30T04:21:24;100161.97;;;-3.81;82.07
74913;BME280;63878;55.624;37.304;2024-01-30T04:31:24;100170.53;;;-3.82;81.62
74913;BME280;63878;55.624;37.304;2024-01-30T04:41:25;100155.22;;;-3.85;82.54
74913;BME280;63878;55.624;37.304;2024-01-30T04:51:25;100160.78;;;-3.66;82.08
74913;BME280;63878;55.624;37.304;2024-01-30T05:01:26;100155.50;;;-3.59;81.16
74913;BME280;63878;55.624;37.304;2024-01-30T05:11:26;100153.19;;;-3.69;81.91
74913;BME280;63878;55.624;37.304;2024-01-30T05:21:27;100171.47;;;-3.49;81.01
74913;BME280;63878;55.624;37.304;2024-01-30T05:31:27;100164.75;;;-3.53;81.24
74913;BME280;63878;55.624;37.304;2024-01-30T05:41:27;100179.00;;;-3.42;81.59
74913;BME280;63878;55.624;37.304;2024-01-30T05:51:28;100174.69;;;-3.40;81.06
74913;BME280;63878;55.624;37.304;2024-01-30T06:01:28;100183.16;;;-3.38;81.07
74913;BME280;63878;55.624;37.304;2024-01-30T06:11:29;100191.66;;;-3.36;80.96
74913;BME280;63878;55.624;37.304;2024-01-30T06:21:29;100190.53;;;-3.24;80.55
74913;BME280;63878;55.624;37.304;2024-01-30T06:31:30;100198.91;;;-3.18;80.65
74913;BME280;63878;55.624;37.304;2024-01-30T06:41:30;100205.53;;;-3.11;79.79
74913;BME280;63878;55.624;37.304;2024-01-30T06:51:31;100212.19;;;-3.02;79.87
74913;BME280;63878;55.624;37.304;2024-01-30T07:01:31;100219.16;;;-3.09;79.74
74913;BME280;63878;55.624;37.304;2024-01-30T07:11:32;100231.31;;;-2.82;78.94
74913;BME280;63878;55.624;37.304;2024-01-30T07:21:32;100232.88;;;-2.75;79.00
74913;BME280;63878;55.624;37.304;2024-01-30T07:31:33;100238.81;;;-2.74;78.81
74913;BME280;63878;55.624;37.304;2024-01-30T07:41:33;100236.28;;;-2.76;78.96
74913;BME280;63878;55.624;37.304;2024-01-30T07:51:34;100247.44;;;-2.78;79.68
74913;BME280;63878;55.624;37.304;2024-01-30T08:01:34;100250.63;;;-2.69;79.29
74913;BME280;63878;55.624;37.304;2024-01-30T08:11:34;100256.50;;;-2.64;79.02
74913;BME280;63878;55.624;37.304;2024-01-30T08:21:35;100255.25;;;-2.48;78.87
74913;BME280;63878;55.624;37.304;2024-01-30T08:31:36;100238.34;;;-2.56;78.41
74913;BME280;63878;55.624;37.304;2024-01-30T08:41:36;100239.06;;;-2.51;79.18
74913;BME280;63878;55.624;37.304;2024-01-30T08:51:36;100247.22;;;-2.36;78.26
74913;BME280;63878;55.624;37.304;2024-01-30T09:01:37;100240.47;;;-2.40;78.41
74913;BME280;63878;55.624;37.304;2024-01-30T09:11:37;100238.53;;;-2.30;78.07
74913;BME280;63878;55.624;37.304;2024-01-30T09:21:38;100247.88;;;-2.28;78.17
74913;BME280;63878;55.624;37.304;2024-01-30T09:31:45;100248.78;;;-2.30;78.02
74913;BME280;63878;55.624;37.304;2024-01-30T09:52:02;100238.38;;;-2.24;77.44
74913;BME280;63878;55.624;37.304;2024-01-30T10:02:04;100239.69;;;-2.10;77.12
74913;BME280;63878;55.624;37.304;2024-01-30T10:12:05;100241.34;;;-2.09;77.73
74913;BME280;63878;55.624;37.304;2024-01-30T10:22:07;100225.94;;;-2.07;77.50
74913;BME280;63878;55.624;37.304;2024-01-30T10:32:08;100223.50;;;-2.12;77.66
74913;BME280;63878;55.624;37.304;2024-01-30T10:42:15;100212.06;;;-2.00;77.35
74913;BME280;63878;55.624;37.304;2024-01-30T10:52:17;100218.59;;;-1.89;77.12
74913;BME280;63878;55.624;37.304;2024-01-30T11:02:18;100221.94;;;-1.87;77.07
74913;BME280;63878;55.624;37.304;2024-01-30T11:12:24;100243.38;;;-1.89;76.40
74913;BME280;63878;55.624;37.304;2024-01-30T11:22:25;100227.16;;;-1.90;76.61
74913;BME280;63878;55.624;37.304;2024-01-30T11:32:27;100224.34;;;-1.81;76.39
74913;BME280;63878;55.624;37.304;2024-01-30T11:42:28;100224.66;;;-1.91;76.93
74913;BME280;63878;55.624;37.304;2024-01-30T11:52:31;100247.69;;;-1.90;76.83
74913;BME280;63878;55.624;37.304;2024-01-30T12:02:32;100254.47;;;-1.87;76.63
74913;BME280;63878;55.624;37.304;2024-01-30T12:12:33;100261.09;;;-1.80;76.74
74913;BME280;63878;55.624;37.304;2024-01-30T12:32:46;100267.97;;;-1.81;76.71
74913;BME280;63878;55.624;37.304;2024-01-30T12:42:47;100279.16;;;-1.83;76.87
74913;BME280;63878;55.624;37.304;2024-01-30T12:52:48;100273.88;;;-1.79;76.52
74913;BME280;63878;55.624;37.304;2024-01-30T13:02:49;100287.81;;;-1.87;77.29
74913;BME280;63878;55.624;37.304;2024-01-30T13:12:50;100284.34;;;-1.86;76.87
74913;BME280;63878;55.624;37.304;2024-01-30T13:22:51;100291.41;;;-1.94;77.26
74913;BME280;63878;55.624;37.304;2024-01-30T13:32:51;100291.28;;;-1.88;77.43
74913;BME280;63878;55.624;37.304;2024-01-30T13:42:52;100285.28;;;-1.89;77.34
74913;BME280;63878;55.624;37.304;2024-01-30T13:52:53;100286.06;;;-1.87;77.14
74913;BME280;63878;55.624;37.304;2024-01-30T14:02:54;100299.06;;;-1.93;77.37
74913;BME280;63878;55.624;37.304;2024-01-30T14:12:55;100299.97;;;-1.94;77.72
74913;BME280;63878;55.624;37.304;2024-01-30T14:22:56;100317.19;;;-1.99;77.91
74913;BME280;63878;55.624;37.304;2024-01-30T14:32:57;100313.81;;;-2.01;77.88
74913;BME280;63878;55.624;37.304;2024-01-30T14:42:57;100324.72;;;-1.93;78.04
74913;BME280;63878;55.624;37.304;2024-01-30T14:52:58;100337.72;;;-1.99;77.81
74913;BME280;63878;55.624;37.304;2024-01-30T15:02:58;100332.63;;;-2.00;78.07
74913;BME280;63878;55.624;37.304;2024-01-30T15:12:59;100330.88;;;-2.00;77.92
74913;BME280;63878;55.624;37.304;2024-01-30T15:23:00;100335.16;;;-1.99;77.97
74913;BME280;63878;55.624;37.304;2024-01-30T15:33:01;100333.44;;;-2.00;77.83
74913;BME280;63878;55.624;37.304;2024-01-30T15:43:02;100356.69;;;-2.06;77.96
74913;BME280;63878;55.624;37.304;2024-01-30T15:53:03;100358.38;;;-2.05;78.06
74913;BME280;63878;55.624;37.304;2024-01-30T16:03:07;100362.72;;;-2.07;78.20
74913;BME280;63878;55.624;37.304;2024-01-30T16:13:08;100371.31;;;-2.09;78.29
74913;BME280;63878;55.624;37.304;2024-01-30T16:23:09;100375.53;;;-2.07;78.37
74913;BME280;63878;55.624;37.304;2024-01-30T16:33:11;100379.44;;;-1.92;77.46
74913;BME280;63878;55.624;37.304;2024-01-30T16:43:14;100383.16;;;-2.04;77.55
74913;BME280;63878;55.624;37.304;2024-01-30T16:53:15;100381.56;;;-2.08;78.28
74913;BME280;63878;55.624;37.304;2024-01-30T17:03:16;100380.59;;;-2.04;77.93
74913;BME280;63878;55.624;37.304;2024-01-30T17:13:17;100372.16;;;-2.09;78.08
74913;BME280;63878;55.624;37.304;2024-01-30T17:23:17;100373.91;;;-2.09;77.76
74913;BME280;63878;55.624;37.304;2024-01-30T17:33:18;100378.88;;;-2.05;77.64
74913;BME280;63878;55.624;37.304;2024-01-30T17:43:18;100379.94;;;-2.12;77.74
74913;BME280;63878;55.624;37.304;2024-01-30T17:53:19;100378.88;;;-2.05;77.77
74913;BME280;63878;55.624;37.304;2024-01-30T18:03:19;100368.81;;;-2.12;78.29
74913;BME280;63878;55.624;37.304;2024-01-30T18:13:20;100386.03;;;-2.16;77.79
74913;BME280;63878;55.624;37.304;2024-01-30T18:23:20;100369.72;;;-2.13;78.31
74913;BME280;63878;55.624;37.304;2024-01-30T18:33:20;100368.97;;;-2.17;78.14
74913;BME280;63878;55.624;37.304;2024-01-30T18:43:21;100360.41;;;-2.17;78.38
74913;BME280;63878;55.624;37.304;2024-01-30T18:53:22;100366.47;;;-2.20;78.01
74913;BME280;63878;55.624;37.304;2024-01-30T19:03:23;100378.84;;;-2.03;77.06
74913;BME280;63878;55.624;37.304;2024-01-30T19:13:24;100369.56;;;-2.07;76.99
74913;BME280;63878;55.624;37.304;2024-01-30T19:23:24;100360.84;;;-2.00;76.41
74913;BME280;63878;55.624;37.304;2024-01-30T19:33:25;100363.88;;;-2.18;77.18
74913;BME280;63878;55.624;37.304;2024-01-30T19:43:26;100366.31;;;-2.15;77.14
74913;BME280;63878;55.624;37.304;2024-01-30T19:53:26;100368.91;;;-2.15;76.75
74913;BME280;63878;55.624;37.304;2024-01-30T20:03:27;100369.09;;;-2.23;77.54
74913;BME280;63878;55.624;37.304;2024-01-30T20:13:28;100359.91;;;-2.31;77.41
74913;BME280;63878;55.624;37.304;2024-01-30T20:23:29;100358.88;;;-2.24;77.16
74913;BME280;63878;55.624;37.304;2024-01-30T20:33:29;100361.59;;;-2.30;77.04
74913;BME280;63878;55.624;37.304;2024-01-30T20:43:30;100351.47;;;-2.35;77.42
74913;BME280;63878;55.624;37.304;2024-01-30T20:53:31;100347.38;;;-2.43;78.05
74913;BME280;63878;55.624;37.304;2024-01-30T21:03:32;100353.13;;;-2.34;77.38
74913;BME280;63878;55.624;37.304;2024-01-30T21:13:33;100344.78;;;-2.42;77.33
74913;BME280;63878;55.624;37.304;2024-01-30T21:23:33;100344.78;;;-2.42;77.48
74913;BME280;63878;55.624;37.304;2024-01-30T21:33:35;100333.81;;;-2.47;77.46
74913;BME280;63878;55.624;37.304;2024-01-30T21:43:35;100336.41;;;-2.48;77.43
74913;BME280;63878;55.624;37.304;2024-01-30T21:53:36;100330.41;;;-2.49;77.17
74913;BME280;63878;55.624;37.304;2024-01-30T22:03:36;100309.34;;;-2.60;77.42
74913;BME280;63878;55.624;37.304;2024-01-30T22:13:37;100304.94;;;-2.55;77.39
74913;BME280;63878;55.624;37.304;2024-01-30T22:23:38;100289.81;;;-2.65;77.58
74913;BME280;63878;55.624;37.304;2024-01-30T22:33:38;100283.88;;;-2.66;77.58
74913;BME280;63878;55.624;37.304;2024-01-30T22:43:39;100286.38;;;-2.64;77.68
74913;BME280;63878;55.624;37.304;2024-01-30T22:53:40;100271.13;;;-2.69;77.67
74913;BME280;63878;55.624;37.304;2024-01-30T23:03:40;100256.72;;;-2.73;77.65
74913;BME280;63878;55.624;37.304;2024-01-30T23:13:41;100254.38;;;-2.82;77.80
74913;BME280;63878;55.624;37.304;2024-01-30T23:23:42;100255.72;;;-3.02;79.09
74913;BME280;63878;55.624;37.304;2024-01-30T23:33:42;100258.81;;;-2.90;78.25
74913;BME280;63878;55.624;37.304;2024-01-30T23:43:43;100263.69;;;-3.16;79.27
74913;BME280;63878;55.624;37.304;2024-01-30T23:53:43;100267.53;;;-2.97;78.70
